Bookmark and Share
Track history (hours):
 

Sy Clevelander

Last reported at 2013-Nov-09 11:04 UTC. Time now 2014-Apr-23 15:44 UTC.
Position N 30°27' W 116°30'.
Warning: this ship's position is months out of date.

Length 25 m.

Type: Sailing vessel. MMSI: 235076308.

NotesDate/timePositionNaut miles runAvg speedWind from/ knotsBaromVisibWave heightAir tempDewpointWater temp
2013-Nov-09 11:04N 30°27' W 116°30'4 8.7
2013-Nov-09 10:33N 30°31' W 116°31'10 8.1
2013-Nov-09 09:21N 30°41' W 116°34'4 5.3
2013-Nov-09 08:32N 30°45' W 116°35'5 5.3
2013-Nov-09 07:33N 30°50' W 116°37'7 7.4
2013-Nov-09 06:33N 30°57' W 116°38'19 9.2
2013-Nov-09 04:30N 31°16' W 116°43'8 8.9
2013-Nov-09 03:33N 31°24' W 116°45'15 6.9
2013-Nov-09 01:24N 31°39' W 116°48'5 5.7
2013-Nov-09 00:31N 31°43' W 116°50'16 1.5
2013-Nov-08 14:17N 31°59' W 116°54'5 7.3
2013-Nov-08 13:33N 32°03' W 116°58'8 7.7
2013-Nov-08 12:33N 32°10' W 117°03'8 7.6
2013-Nov-08 11:33N 32°16' W 117°07'11 7.7
2013-Nov-08 10:10N 32°26' W 117°11'8 8.5
2013-Nov-08 09:11N 32°35' W 117°13'6 8.7
2013-Nov-08 08:33N 32°40' W 117°14'3 2.7
2013-Nov-08 07:32N 32°43' W 117°14'0 0.0
2013-Nov-08 06:32N 32°43' W 117°14'0 0.0
2013-Nov-08 05:29N 32°43' W 117°14'0 0.0
2013-Nov-07 22:20N 32°43' W 117°14'0 0.0
2013-Nov-07 21:26N 32°43' W 117°14'0 0.0
2013-Nov-07 20:26N 32°43' W 117°14'0 0.0
2013-Nov-07 19:08N 32°43' W 117°14'0 0.0
2013-Nov-07 00:32N 32°43' W 117°14'0 0.0
2013-Nov-06 23:20N 32°43' W 117°14'0 0.0
2013-Nov-06 22:32N 32°43' W 117°14'0 0.0
2013-Nov-06 21:32N 32°43' W 117°14'0 0.0
2013-Nov-06 17:31N 32°43' W 117°14'0 0.0
2013-Nov-06 13:03N 32°43' W 117°14'0 0.0
2013-Nov-06 06:32N 32°43' W 117°14'0 0.0
2013-Nov-06 05:20N 32°43' W 117°14'0 0.0
2013-Nov-06 04:32N 32°43' W 117°14'0 0.0
2013-Nov-06 03:29N 32°43' W 117°14'0 0.0
2013-Nov-06 02:32N 32°43' W 117°14'0 0.0
2013-Nov-06 01:32N 32°43' W 117°14'0 0.0
2013-Nov-06 00:08N 32°43' W 117°14'0 0.0
2013-Nov-05 23:32N 32°43' W 117°14'0 0.0
2013-Nov-05 22:26N 32°43' W 117°14'0 0.0
2013-Nov-05 21:26N 32°43' W 117°14'0 0.0
2013-Nov-05 19:32N 32°43' W 117°14'0 0.0
2013-Nov-05 18:26N 32°43' W 117°14'0 0.0
2013-Nov-05 05:26N 32°43' W 117°14'0 0.0
2013-Nov-03 20:14N 32°43' W 117°14'0 0.0
2013-Nov-03 17:14N 32°43' W 117°14'0 0.0
2013-Nov-03 16:29N 32°43' W 117°14'0 0.0
2013-Nov-03 15:11N 32°43' W 117°14'0 0.0
2013-Nov-03 14:32N 32°43' W 117°14'0 0.0
2013-Nov-03 13:32N 32°43' W 117°14'0 0.0
2013-Nov-03 12:29N 32°43' W 117°14'0 0.0
2013-Nov-03 11:32N 32°43' W 117°14'0 0.0
2013-Nov-03 10:26N 32°43' W 117°14'0 0.0
2013-Nov-03 09:32N 32°43' W 117°14'0 0.0
2013-Nov-03 08:08N 32°43' W 117°14'0 0.0
2013-Nov-03 07:08N 32°43' W 117°14'0 0.0
2013-Nov-03 06:26N 32°43' W 117°14'0 0.0
2013-Nov-03 05:08N 32°43' W 117°14'0 0.0
2013-Nov-03 04:32N 32°43' W 117°14'0 0.0
2013-Nov-03 03:26N 32°43' W 117°14'0 0.0
2013-Nov-03 02:20N 32°43' W 117°14'0 0.0
2013-Nov-02 17:05N 32°43' W 117°14'0 0.0
2013-Nov-02 16:32N 32°43' W 117°14'0 0.0
2013-Nov-02 15:08N 32°43' W 117°14'0 0.0
2013-Nov-02 14:26N 32°43' W 117°14'0 0.0
2013-Nov-02 13:14N 32°43' W 117°14'0 0.0
2013-Nov-02 12:32N 32°43' W 117°14'0 0.0
2013-Nov-02 11:32N 32°43' W 117°14'0 0.0
2013-Nov-02 10:32N 32°43' W 117°14'0 0.0
2013-Nov-02 09:26N 32°43' W 117°14'0 0.0
2013-Nov-02 08:32N 32°43' W 117°14'0 0.0
2013-Nov-02 07:32N 32°43' W 117°14'0 0.0
2013-Nov-02 06:29N 32°43' W 117°14'0 0.0
2013-Nov-02 05:20N 32°43' W 117°14'0 0.0
2013-Nov-02 04:29N 32°43' W 117°14'0 0.0
2013-Nov-02 03:20N 32°43' W 117°14'0 0.0
2013-Nov-02 02:26N 32°43' W 117°14'0 0.0
2013-Nov-02 01:17N 32°43' W 117°14'0 0.0
2013-Nov-02 00:32N 32°43' W 117°14'0 0.0
2013-Nov-01 23:32N 32°43' W 117°14'0 0.0
2013-Nov-01 22:32N 32°43' W 117°14'0 0.0
2013-Nov-01 21:32N 32°43' W 117°14'0 0.0
2013-Nov-01 20:32N 32°43' W 117°14'0 0.0
2013-Nov-01 07:23N 32°43' W 117°14'0 0.0
2013-Nov-01 04:20N 32°43' W 117°14'0 0.0
2013-Nov-01 03:26N 32°43' W 117°14'0 0.0
2013-Nov-01 02:32N 32°43' W 117°14'0 0.0
2013-Nov-01 01:26N 32°43' W 117°14'0 0.0
2013-Nov-01 00:32N 32°43' W 117°14'0 0.0
2013-Oct-31 16:32N 32°43' W 117°14'0 0.0
2013-Oct-31 15:05N 32°43' W 117°14'0 0.0
2013-Oct-31 14:26N 32°43' W 117°14'0 0.0
2013-Oct-31 13:14N 32°43' W 117°14'0 0.0
2013-Oct-31 11:14N 32°43' W 117°14'0 0.0
2013-Oct-31 10:05N 32°43' W 117°14'0 0.0
2013-Oct-31 07:05N 32°43' W 117°14'0 0.0
2013-Oct-30 20:32N 32°43' W 117°14'0 0.0
2013-Oct-30 17:29N 32°43' W 117°14'0 0.0
2013-Oct-30 16:32N 32°43' W 117°14'0 0.0
2013-Oct-30 15:33N 32°43' W 117°14'0 0.0
2013-Oct-30 14:33N 32°43' W 117°14'0 0.0
2013-Oct-30 13:32N 32°43' W 117°14'0 0.0
2013-Oct-30 12:32N 32°43' W 117°14'0 0.0
2013-Oct-30 11:26N 32°43' W 117°14'  

Dump ship's entire track history

sailing weather and tide predictions

Sy Clevelander — 2CWE8 — position and weather